createdAt,value
2023-02-13T00:01:27.390Z,25.70
2023-02-13T00:03:55.371Z,24.65
2023-02-13T00:06:23.746Z,25.27
2023-02-13T00:08:51.746Z,25.60
2023-02-13T00:11:19.776Z,24.52
2023-02-13T00:13:47.775Z,24.50
2023-02-13T00:16:15.699Z,26.67
2023-02-13T00:18:43.872Z,24.05
2023-02-13T00:21:13.848Z,22.23
2023-02-13T00:23:42.035Z,24.85
2023-02-13T00:26:12.905Z,25.77
2023-02-13T00:28:46.042Z,23.92
2023-02-13T00:31:17.722Z,22.67
2023-02-13T00:33:45.956Z,21.67
2023-02-13T00:36:20.059Z,25.27
2023-02-13T00:38:48.344Z,24.30
2023-02-13T00:41:19.934Z,22.92
2023-02-13T00:43:48.904Z,24.80
2023-02-13T00:46:18.188Z,25.15
2023-02-13T00:48:46.168Z,25.80
2023-02-13T00:51:14.185Z,27.58
2023-02-13T00:53:42.424Z,24.23
2023-02-13T00:56:10.665Z,26.70
2023-02-13T00:58:38.658Z,23.50
2023-02-13T01:01:06.816Z,24.30
2023-02-13T01:03:43.311Z,26.40
2023-02-13T01:06:14.436Z,27.35
2023-02-13T01:08:42.975Z,32.03
2023-02-13T01:11:11.253Z,39.78
2023-02-13T01:13:39.268Z,45.10
2023-02-13T01:16:07.638Z,33.00
2023-02-13T01:18:35.582Z,54.67
2023-02-13T01:21:08.946Z,38.47
2023-02-13T01:23:40.022Z,46.58
2023-02-13T01:26:09.943Z,41.80
2023-02-13T01:28:37.920Z,40.22
2023-02-13T01:31:06.083Z,40.47
2023-02-13T01:33:34.224Z,42.50
2023-02-13T01:36:07.681Z,36.58
2023-02-13T01:38:35.616Z,44.85
2023-02-13T01:41:03.736Z,41.28
2023-02-13T01:43:56.452Z,61.92
2023-02-13T01:46:30.081Z,64.20
2023-02-13T01:49:04.163Z,69.10
2023-02-13T01:51:38.331Z,51.08
2023-02-13T01:54:12.820Z,46.42
2023-02-13T01:56:48.207Z,64.50
2023-02-13T01:59:24.654Z,66.30
2023-02-13T02:01:53.107Z,59.47
2023-02-13T02:04:29.369Z,70.45
2023-02-13T02:07:01.907Z,71.28
2023-02-13T02:09:36.452Z,65.65
2023-02-13T02:12:10.650Z,46.60
2023-02-13T02:14:42.381Z,46.42
2023-02-13T02:17:15.744Z,40.50
2023-02-13T02:20:06.593Z,40.08
2023-02-13T02:23:01.569Z,39.97
2023-02-13T02:25:57.927Z,48.03
2023-02-13T02:28:52.128Z,46.47
2023-02-13T02:31:44.987Z,29.23
2023-02-13T02:34:25.825Z,27.00
2023-02-13T02:37:10.022Z,28.08
2023-02-13T02:39:49.322Z,28.23
2023-02-13T02:42:34.150Z,31.00
2023-02-13T02:45:29.929Z,32.50
2023-02-13T02:48:27.241Z,36.50
2023-02-13T02:51:15.208Z,37.15
2023-02-13T02:53:45.256Z,36.10
2023-02-13T02:56:32.290Z,36.97
2023-02-13T02:59:26.207Z,33.03
2023-02-13T03:02:15.202Z,31.83
2023-02-13T03:05:10.204Z,35.80
2023-02-13T03:07:38.530Z,39.83
2023-02-13T03:10:31.618Z,48.58
2023-02-13T03:13:23.924Z,54.42
2023-02-13T03:16:14.351Z,50.65
2023-02-13T03:19:05.011Z,41.50
2023-02-13T03:22:18.704Z,39.20
2023-02-13T03:25:08.234Z,32.80
2023-02-13T03:28:08.861Z,31.02
2023-02-13T03:31:14.551Z,28.23
2023-02-13T03:34:05.718Z,35.75
2023-02-13T03:37:09.515Z,27.02
2023-02-13T03:39:37.385Z,27.83
2023-02-13T03:42:23.020Z,38.45
2023-02-13T03:48:11.012Z,33.40
2023-02-13T03:50:42.767Z,31.98
2023-02-13T03:53:16.450Z,39.05
2023-02-13T03:56:07.261Z,32.38
2023-02-13T03:59:02.647Z,30.25
2023-02-13T04:01:33.423Z,43.08
2023-02-13T04:04:11.552Z,33.38
2023-02-13T04:06:54.654Z,27.27
2023-02-13T04:09:22.696Z,30.00
2023-02-13T04:12:21.028Z,29.27
2023-02-13T04:15:03.363Z,28.60
2023-02-13T04:17:56.801Z,29.77
2023-02-13T04:20:29.026Z,27.27
2023-02-13T04:22:56.967Z,25.92
2023-02-13T04:25:25.029Z,27.23
2023-02-13T04:27:53.193Z,28.52
2023-02-13T04:30:21.292Z,31.63
2023-02-13T04:32:49.295Z,26.65
2023-02-13T04:35:17.568Z,24.95
2023-02-13T04:37:45.632Z,24.95
2023-02-13T04:40:13.783Z,23.60
2023-02-13T04:42:41.752Z,24.35
2023-02-13T04:45:10.262Z,22.75
2023-02-13T04:47:38.226Z,25.92
2023-02-13T04:50:06.642Z,24.58
2023-02-13T04:52:34.570Z,25.83
2023-02-13T04:55:02.437Z,24.77
2023-02-13T04:57:30.369Z,28.10
2023-02-13T04:59:58.330Z,27.30
2023-02-13T05:02:26.465Z,40.72
2023-02-13T05:04:54.463Z,23.65
2023-02-13T05:07:22.409Z,22.33
2023-02-13T05:09:56.039Z,22.40
2023-02-13T05:12:27.046Z,22.23
2023-02-13T05:14:55.148Z,22.20
2023-02-13T05:17:23.057Z,22.90
2023-02-13T05:19:50.963Z,22.98
2023-02-13T05:22:37.550Z,23.23
2023-02-13T05:25:05.829Z,25.90
2023-02-13T05:27:33.748Z,32.92
2023-02-13T05:30:01.749Z,34.10
2023-02-13T05:32:29.632Z,26.75
2023-02-13T05:34:57.569Z,26.35
2023-02-13T05:37:25.460Z,28.17
2023-02-13T05:39:53.327Z,39.25
2023-02-13T05:42:21.234Z,30.88
2023-02-13T05:44:49.151Z,24.25
2023-02-13T05:47:17.135Z,24.83
2023-02-13T05:49:45.026Z,23.77
2023-02-13T05:52:12.896Z,22.65
2023-02-13T05:54:41.262Z,31.38
2023-02-13T05:57:09.194Z,24.77
2023-02-13T05:59:37.103Z,24.27
2023-02-13T06:02:05.021Z,27.02
2023-02-13T06:04:32.990Z,33.30
2023-02-13T06:07:01.205Z,26.33
2023-02-13T06:09:29.122Z,22.20
2023-02-13T06:11:57.025Z,24.45
2023-02-13T06:14:24.929Z,23.25
2023-02-13T06:16:52.849Z,24.08
2023-02-13T06:19:20.778Z,23.58
2023-02-13T06:21:48.688Z,24.20
2023-02-13T06:24:16.710Z,23.38
2023-02-13T06:26:44.655Z,24.80
2023-02-13T06:29:13.855Z,24.42
2023-02-13T06:31:41.844Z,20.48
2023-02-13T06:34:09.854Z,20.48
2023-02-13T06:36:39.463Z,22.55
2023-02-13T06:39:07.428Z,20.70
2023-02-13T06:41:35.327Z,19.50
2023-02-13T06:44:03.276Z,22.80
2023-02-13T06:46:31.242Z,18.42
2023-02-13T06:48:59.202Z,16.77
2023-02-13T06:51:27.176Z,17.85
2023-02-13T06:53:55.124Z,16.70
2023-02-13T06:56:23.084Z,17.00
2023-02-13T06:58:52.406Z,16.88
2023-02-13T07:01:20.486Z,15.27
2023-02-13T07:03:52.357Z,15.02
2023-02-13T07:06:23.838Z,17.92
2023-02-13T07:08:56.311Z,15.10
2023-02-13T07:11:26.049Z,15.55
2023-02-13T07:13:54.078Z,15.48
2023-02-13T07:16:22.567Z,14.98
2023-02-13T07:18:51.008Z,15.88
2023-02-13T07:21:18.925Z,15.60
2023-02-13T07:23:46.841Z,22.90
2023-02-13T07:26:14.713Z,20.33
2023-02-13T07:28:43.228Z,20.15
2023-02-13T07:31:12.721Z,18.33
2023-02-13T07:33:40.671Z,16.52
2023-02-13T07:36:09.357Z,18.88
2023-02-13T07:38:37.340Z,18.63
2023-02-13T07:41:05.927Z,19.67
2023-02-13T07:43:36.605Z,17.95
2023-02-13T07:46:05.310Z,16.67
2023-02-13T07:48:33.493Z,16.17
2023-02-13T07:51:03.113Z,18.30
2023-02-13T07:53:31.551Z,17.75
2023-02-13T07:55:59.641Z,16.55
2023-02-13T07:58:27.691Z,16.25
2023-02-13T08:00:57.111Z,16.30
2023-02-13T08:03:25.110Z,16.40
2023-02-13T08:05:53.148Z,15.05
2023-02-13T08:08:21.063Z,14.40
2023-02-13T08:11:07.884Z,13.65
2023-02-13T08:13:38.904Z,14.18
2023-02-13T08:16:06.906Z,13.50
2023-02-13T08:18:38.257Z,13.60
2023-02-13T08:21:07.697Z,15.23
2023-02-13T08:23:35.818Z,14.85
2023-02-13T08:26:04.027Z,16.52
2023-02-13T08:28:32.210Z,15.95
2023-02-13T08:31:03.449Z,18.38
2023-02-13T08:33:31.704Z,15.93
2023-02-13T08:35:59.697Z,16.13
2023-02-13T08:38:27.818Z,15.45
2023-02-13T08:40:58.514Z,18.02
2023-02-13T08:43:27.083Z,16.85
2023-02-13T08:45:55.090Z,24.25
2023-02-13T08:48:26.908Z,16.30
2023-02-13T08:50:54.916Z,22.58
2023-02-13T08:53:22.970Z,17.13
2023-02-13T08:55:59.004Z,17.42
2023-02-13T08:58:27.064Z,15.30
2023-02-13T09:00:58.442Z,13.98
2023-02-13T09:03:26.547Z,13.15
2023-02-13T09:05:54.429Z,14.60
2023-02-13T09:08:22.582Z,15.88
2023-02-13T09:11:00.453Z,17.98
2023-02-13T09:13:31.722Z,13.93
2023-02-13T09:16:01.560Z,13.98
2023-02-13T09:18:30.151Z,13.93
2023-02-13T09:21:13.802Z,13.15
2023-02-13T09:23:42.890Z,12.95
2023-02-13T09:26:13.758Z,13.85
2023-02-13T09:28:42.399Z,15.10
2023-02-13T09:31:19.046Z,14.52
2023-02-13T09:33:48.776Z,15.23
2023-02-13T09:36:21.008Z,15.07
2023-02-13T09:38:53.145Z,16.05
2023-02-13T09:41:46.204Z,15.18
2023-02-13T09:44:39.456Z,16.65
2023-02-13T09:47:31.072Z,15.90
2023-02-13T09:50:06.416Z,15.82
2023-02-13T09:52:37.040Z,17.20
2023-02-13T09:55:17.442Z,17.67
2023-02-13T09:58:00.158Z,16.88
2023-02-13T10:00:36.186Z,16.30
2023-02-13T10:03:22.683Z,16.95
2023-02-13T10:06:18.202Z,17.42
2023-02-13T10:09:04.640Z,16.38
2023-02-13T10:12:02.491Z,17.80
2023-02-13T10:14:54.315Z,16.63
2023-02-13T10:17:36.365Z,16.48
2023-02-13T10:20:17.892Z,15.73
2023-02-13T10:22:53.122Z,17.42
2023-02-13T10:25:31.039Z,18.13
2023-02-13T10:28:11.348Z,17.83
2023-02-13T10:30:51.427Z,16.65
2023-02-13T10:33:35.832Z,19.17
2023-02-13T10:36:12.541Z,19.35
2023-02-13T10:38:53.163Z,19.45
2023-02-13T10:41:23.768Z,18.43
2023-02-13T10:44:00.167Z,18.38
2023-02-13T10:46:46.460Z,19.42
2023-02-13T10:49:45.476Z,18.00
2023-02-13T10:52:47.156Z,20.67
2023-02-13T10:58:34.245Z,18.30
2023-02-13T11:04:02.935Z,15.73
2023-02-13T11:06:31.421Z,16.45
2023-02-13T11:08:59.795Z,16.30
2023-02-13T11:11:40.492Z,15.88
2023-02-13T11:14:20.156Z,16.55
2023-02-13T11:17:03.213Z,15.20
2023-02-13T11:19:38.536Z,14.63
2023-02-13T11:22:19.181Z,15.60
2023-02-13T11:25:23.988Z,15.82
2023-02-13T11:27:56.675Z,15.73
2023-02-13T11:30:24.530Z,14.30
2023-02-13T11:33:07.587Z,16.17
2023-02-13T11:35:37.718Z,16.08
2023-02-13T11:38:26.020Z,15.27
2023-02-13T11:41:16.223Z,15.07
2023-02-13T11:43:49.927Z,14.75
2023-02-13T11:46:22.030Z,15.20
2023-02-13T11:49:08.416Z,17.02
2023-02-13T11:51:57.601Z,20.98
2023-02-13T11:54:45.453Z,18.13
2023-02-13T11:57:21.928Z,16.65
2023-02-13T11:59:53.309Z,14.00
2023-02-13T12:02:25.613Z,12.85
2023-02-13T12:05:13.762Z,12.70
2023-02-13T12:07:48.551Z,11.55
2023-02-13T12:10:16.465Z,12.85
2023-02-13T12:12:48.352Z,12.90
2023-02-13T12:15:25.194Z,13.30
2023-02-13T12:18:45.393Z,15.25
2023-02-13T12:21:32.155Z,14.45
2023-02-13T12:24:44.523Z,14.13
2023-02-13T12:27:32.767Z,13.55
2023-02-13T12:30:36.260Z,13.25
2023-02-13T12:33:33.328Z,14.73
2023-02-13T12:36:19.315Z,13.23
2023-02-13T12:38:54.756Z,14.77
2023-02-13T12:41:50.217Z,14.65
2023-02-13T12:44:43.203Z,13.82
2023-02-13T12:47:58.059Z,13.38
2023-02-13T12:51:00.648Z,14.35
2023-02-13T12:54:02.837Z,13.43
2023-02-13T12:56:32.334Z,12.70
2023-02-13T12:59:06.040Z,12.20
2023-02-13T13:01:55.319Z,12.60
2023-02-13T13:04:49.313Z,12.60
2023-02-13T13:07:43.678Z,12.30
2023-02-13T13:10:21.369Z,13.35
2023-02-13T13:12:56.464Z,11.32
2023-02-13T13:15:36.055Z,12.80
2023-02-13T13:18:15.694Z,11.00
2023-02-13T13:21:02.543Z,11.45
2023-02-13T13:23:39.822Z,11.48
2023-02-13T13:26:36.191Z,11.10
2023-02-13T13:29:11.936Z,10.50
2023-02-13T13:31:40.881Z,10.48
2023-02-13T13:34:17.599Z,10.13
2023-02-13T13:37:06.325Z,9.60
2023-02-13T13:39:37.908Z,10.82
2023-02-13T13:42:19.949Z,10.80
2023-02-13T13:45:01.858Z,11.27
2023-02-13T13:48:14.182Z,10.88
2023-02-13T13:50:44.686Z,10.15
2023-02-13T13:53:20.294Z,10.55
2023-02-13T13:55:48.392Z,9.85
2023-02-13T13:58:25.279Z,9.85
2023-02-13T14:01:11.956Z,9.77
2023-02-13T14:03:40.120Z,10.40
2023-02-13T14:06:21.818Z,10.20
2023-02-13T14:08:50.440Z,11.68
2023-02-13T14:11:38.578Z,10.20
2023-02-13T14:14:29.772Z,9.90
2023-02-13T14:19:39.772Z,9.88
2023-02-13T14:22:33.277Z,9.95
2023-02-13T14:25:07.447Z,9.80
2023-02-13T14:27:42.236Z,10.13
2023-02-13T14:30:35.383Z,10.20
2023-02-13T14:33:07.638Z,10.30
2023-02-13T14:35:39.093Z,10.25
2023-02-13T14:38:11.696Z,11.25
2023-02-13T14:40:52.811Z,10.68
2023-02-13T14:43:23.895Z,10.98
2023-02-13T14:46:27.052Z,10.65
2023-02-13T14:49:08.268Z,10.38
2023-02-13T14:51:49.900Z,9.90
2023-02-13T14:54:32.306Z,10.23
2023-02-13T14:57:22.460Z,11.82
2023-02-13T15:00:10.064Z,9.73
2023-02-13T15:02:50.246Z,9.63
2023-02-13T15:05:24.108Z,9.48
2023-02-13T15:08:13.585Z,10.80
2023-02-13T15:10:47.991Z,10.60
2023-02-13T15:13:23.948Z,11.05
2023-02-13T15:16:01.339Z,10.70
2023-02-13T15:18:37.508Z,11.55
2023-02-13T15:21:06.023Z,11.63
2023-02-13T15:23:38.303Z,12.73
2023-02-13T15:26:10.604Z,13.20
2023-02-13T15:28:38.641Z,12.50
2023-02-13T15:31:24.729Z,13.60
2023-02-13T15:33:53.088Z,13.50
2023-02-13T15:36:24.880Z,12.85
2023-02-13T15:39:09.890Z,13.77
2023-02-13T15:41:51.191Z,11.95
2023-02-13T15:44:28.704Z,13.00
2023-02-13T15:47:05.792Z,16.17
2023-02-13T15:49:44.190Z,14.32
2023-02-13T15:52:21.944Z,13.63
2023-02-13T15:54:52.813Z,13.93
2023-02-13T15:57:22.833Z,13.13
2023-02-13T15:59:51.571Z,13.25
2023-02-13T16:02:22.718Z,13.13
2023-02-13T16:04:53.628Z,12.77
2023-02-13T16:07:21.712Z,12.98
2023-02-13T16:09:49.666Z,14.10
2023-02-13T16:12:24.135Z,13.77
2023-02-13T16:14:57.098Z,13.88
2023-02-13T16:17:30.194Z,14.45
2023-02-13T16:20:02.147Z,12.85
2023-02-13T16:22:54.021Z,13.65
2023-02-13T16:25:38.524Z,14.02
2023-02-13T16:28:24.102Z,14.52
2023-02-13T16:31:07.514Z,14.15
2023-02-13T16:33:43.356Z,14.43
2023-02-13T16:36:14.365Z,14.98
2023-02-13T16:38:44.598Z,15.27
2023-02-13T16:41:18.698Z,13.70
2023-02-13T16:44:07.352Z,14.43
2023-02-13T16:46:39.768Z,13.68
2023-02-13T16:49:10.889Z,13.65
2023-02-13T16:52:09.541Z,12.82
2023-02-13T16:54:50.465Z,13.63
2023-02-13T16:57:21.028Z,12.40
2023-02-13T17:00:09.902Z,12.00
2023-02-13T17:02:46.562Z,11.70
2023-02-13T17:05:21.397Z,12.70
2023-02-13T17:07:55.714Z,11.45
2023-02-13T17:10:37.279Z,11.52
2023-02-13T17:15:48.674Z,12.32
2023-02-13T17:18:16.654Z,11.20
2023-02-13T17:20:46.258Z,11.35
2023-02-13T17:23:25.837Z,11.75
2023-02-13T17:25:55.184Z,11.50
2023-02-13T17:28:26.244Z,11.43
2023-02-13T17:30:57.790Z,11.77
2023-02-13T17:33:28.581Z,12.43
2023-02-13T17:35:56.733Z,12.55
2023-02-13T17:38:27.686Z,12.32
2023-02-13T17:40:55.742Z,12.00
2023-02-13T17:43:23.979Z,14.15
2023-02-13T17:45:52.317Z,15.07
2023-02-13T17:48:20.439Z,13.07
2023-02-13T17:50:50.553Z,12.07
2023-02-13T17:53:27.412Z,12.10
2023-02-13T17:55:55.894Z,12.27
2023-02-13T17:58:23.959Z,11.45
2023-02-13T18:00:52.333Z,11.13
2023-02-13T18:03:20.294Z,11.88
2023-02-13T18:05:49.733Z,11.18
2023-02-13T18:08:17.670Z,12.18
2023-02-13T18:10:45.594Z,11.98
2023-02-13T18:13:13.546Z,12.40
2023-02-13T18:15:44.451Z,11.10
2023-02-13T18:18:16.939Z,12.10
2023-02-13T18:20:45.831Z,12.00
2023-02-13T18:23:15.023Z,12.85
2023-02-13T18:25:42.969Z,14.07
2023-02-13T18:28:10.901Z,13.32
2023-02-13T18:30:38.986Z,13.55
2023-02-13T18:33:06.904Z,13.35
2023-02-13T18:35:37.564Z,13.30
2023-02-13T18:38:05.497Z,12.63
2023-02-13T18:40:33.367Z,13.15
2023-02-13T18:43:01.939Z,12.98
2023-02-13T18:45:30.173Z,13.13
2023-02-13T18:47:58.060Z,13.95
2023-02-13T18:50:25.997Z,13.55
2023-02-13T18:52:53.999Z,12.23
2023-02-13T18:55:21.887Z,12.82
2023-02-13T18:57:53.558Z,13.43
2023-02-13T19:00:23.334Z,13.00
2023-02-13T19:02:51.375Z,12.23
2023-02-13T19:05:22.144Z,12.60
2023-02-13T19:07:53.229Z,13.13
2023-02-13T19:10:21.407Z,13.27
2023-02-13T19:12:49.641Z,13.18
2023-02-13T19:15:17.747Z,13.00
2023-02-13T19:17:46.382Z,14.93
2023-02-13T19:20:16.637Z,15.43
2023-02-13T19:22:45.247Z,15.50
2023-02-13T19:25:13.268Z,14.65
2023-02-13T19:27:42.960Z,13.70
2023-02-13T19:30:11.799Z,18.08
2023-02-13T19:32:39.910Z,19.90
2023-02-13T19:35:08.209Z,20.00
2023-02-13T19:37:43.879Z,20.42
2023-02-13T19:40:13.835Z,19.17
2023-02-13T19:42:41.976Z,18.50
2023-02-13T19:45:12.821Z,17.85
2023-02-13T19:47:41.232Z,21.02
2023-02-13T19:50:10.457Z,21.15
2023-02-13T19:52:38.448Z,17.88
2023-02-13T19:55:06.605Z,20.33
2023-02-13T19:57:34.780Z,20.65
2023-02-13T20:00:05.438Z,20.90
2023-02-13T20:02:39.974Z,20.85
2023-02-13T20:05:11.734Z,22.65
2023-02-13T20:07:42.215Z,21.48
2023-02-13T20:10:15.445Z,20.60
2023-02-13T20:12:50.250Z,23.55
2023-02-13T20:15:18.584Z,23.48
2023-02-13T20:17:46.510Z,25.05
2023-02-13T20:20:18.290Z,25.67
2023-02-13T20:22:50.079Z,24.85
2023-02-13T20:25:19.733Z,24.88
2023-02-13T20:27:47.609Z,28.10
2023-02-13T20:30:16.982Z,30.70
2023-02-13T20:32:45.175Z,32.65
2023-02-13T20:35:13.085Z,30.83
2023-02-13T20:37:40.988Z,31.27
2023-02-13T20:40:09.767Z,31.77
2023-02-13T20:42:37.804Z,30.63
2023-02-13T20:45:06.138Z,42.13
2023-02-13T20:47:34.228Z,29.27
2023-02-13T20:50:02.137Z,31.95
2023-02-13T20:52:30.038Z,30.83
2023-02-13T20:54:59.569Z,30.85
2023-02-13T20:57:27.470Z,30.40
2023-02-13T20:59:55.443Z,29.65
2023-02-13T21:02:23.676Z,30.17
2023-02-13T21:04:51.810Z,30.67
2023-02-13T21:07:21.355Z,32.30
2023-02-13T21:09:49.262Z,31.13
2023-02-13T21:12:17.313Z,32.53
2023-02-13T21:14:45.230Z,29.73
2023-02-13T21:17:13.180Z,30.52
2023-02-13T21:19:42.232Z,31.30
2023-02-13T21:22:13.237Z,31.45
2023-02-13T21:24:43.407Z,31.15
2023-02-13T21:27:12.026Z,32.88
2023-02-13T21:29:40.027Z,31.65
2023-02-13T21:32:08.066Z,32.10
2023-02-13T21:34:36.040Z,31.05
2023-02-13T21:37:04.064Z,30.20
2023-02-13T21:39:31.955Z,29.92
2023-02-13T21:41:59.856Z,31.42
2023-02-13T21:44:28.129Z,30.05
2023-02-13T21:46:56.063Z,30.05
2023-02-13T21:49:26.103Z,29.65
2023-02-13T21:51:54.048Z,28.38
2023-02-13T21:54:21.921Z,29.00
2023-02-13T21:56:53.264Z,29.73
2023-02-13T22:01:51.781Z,26.85
2023-02-13T22:04:22.861Z,28.50
2023-02-13T22:06:52.795Z,28.73
2023-02-13T22:09:21.785Z,29.10
2023-02-13T22:11:51.911Z,28.65
2023-02-13T22:14:20.075Z,30.42
2023-02-13T22:16:52.033Z,28.92
2023-02-13T22:19:21.383Z,28.95
2023-02-13T22:21:49.264Z,30.50
2023-02-13T22:24:17.270Z,28.05
2023-02-13T22:26:48.237Z,30.02
2023-02-13T22:29:18.810Z,29.42
2023-02-13T22:31:47.718Z,30.37
2023-02-13T22:34:16.134Z,29.67
2023-02-13T22:36:44.136Z,31.20
2023-02-13T22:39:12.660Z,31.35
2023-02-13T22:41:40.835Z,31.08
2023-02-13T22:44:08.754Z,30.80
2023-02-13T22:46:36.880Z,30.60
2023-02-13T22:49:05.019Z,30.58
2023-02-13T22:51:36.082Z,30.45
2023-02-13T22:54:05.267Z,30.48
2023-02-13T22:56:33.839Z,30.23
2023-02-13T22:59:02.014Z,28.25
2023-02-13T23:01:30.796Z,30.27
2023-02-13T23:03:59.073Z,31.40
2023-02-13T23:06:27.872Z,30.25
2023-02-13T23:08:56.248Z,30.88
2023-02-13T23:11:47.431Z,30.02
2023-02-13T23:14:16.123Z,30.40
2023-02-13T23:17:03.274Z,30.40
2023-02-13T23:19:31.786Z,30.70
2023-02-13T23:22:00.626Z,28.17
2023-02-13T23:24:29.619Z,29.70
2023-02-13T23:26:57.577Z,30.63
2023-02-13T23:29:25.727Z,30.73
2023-02-13T23:31:54.073Z,29.98
2023-02-13T23:34:22.830Z,30.65
2023-02-13T23:36:51.164Z,28.85
2023-02-13T23:39:19.117Z,28.98
2023-02-13T23:41:47.018Z,31.65
2023-02-13T23:44:14.976Z,29.70
2023-02-13T23:46:42.981Z,30.02
2023-02-13T23:49:11.018Z,30.17
2023-02-13T23:51:38.937Z,30.15
2023-02-13T23:54:06.940Z,30.30
2023-02-13T23:56:34.855Z,30.08
2023-02-13T23:59:02.734Z,30.48
